This is the latest recevied weather packets stored in our database for station/object EA1IWF-10. If no packets are shown the sender has not sent any weather packets the latest 10 day(s).
| Time | Temp. | Humidity | Pressure | Rain* | Wind** | Luminosity | Snow |
|---|---|---|---|---|---|---|---|
| 1777322022 | 19.44° C | 56% | 1019.7 hPa | - | - | - | - |
| 1777321121 | 20° C | 54% | 1019.6 hPa | - | - | - | - |
| 1777320220 | 20° C | 53% | 1019.5 hPa | - | - | - | - |
| 1777319319 | 20.56° C | 51% | 1019.4 hPa | - | - | - | - |
| 1777318418 | 20° C | 51% | 1019.3 hPa | - | - | - | - |
| 1777317518 | 20° C | 51% | 1019 hPa | - | - | - | - |
| 1777316617 | 20° C | 50% | 1018.6 hPa | - | - | - | - |
| 1777315716 | 20° C | 51% | 1018.2 hPa | - | - | - | - |
| 1777314815 | 20.56° C | 49% | 1018.1 hPa | - | - | - | - |
| 1777313914 | 21.67° C | 46% | 1017.9 hPa | - | - | - | - |
| 1777313013 | 21.67° C | 47% | 1017.7 hPa | - | - | - | - |
| 1777312113 | 22.78° C | 45% | 1017.8 hPa | - | - | - | - |
| 1777311212 | 24.44° C | 39% | 1017.5 hPa | - | - | - | - |
| 1777310311 | 28.33° C | 32% | 1017.3 hPa | - | - | - | - |
| 1777309410 | 33.89° C | 24% | 1017 hPa | - | - | - | - |
| 1777308509 | 28.89° C | 28% | 1016.9 hPa | - | - | - | - |
| 1777307609 | 29.44° C | 28% | 1016.9 hPa | - | - | - | - |
| 1777306708 | 30° C | 26% | 1017 hPa | - | - | - | - |
| 1777305807 | 36.11° C | 19% | 1017 hPa | - | - | - | - |
| 1777304906 | 38.89° C | 17% | 1017.1 hPa | - | - | - | - |
| 1777304005 | 40.56° C | 16% | 1017.1 hPa | - | - | - | - |
| 1777303105 | 41.11° C | 16% | 1017.4 hPa | - | - | - | - |
| 1777302204 | 41.67° C | 16% | 1017.5 hPa | - | - | - | - |
| 1777301303 | 40.56° C | 17% | 1017.7 hPa | - | - | - | - |
| 1777300402 | 38.33° C | 19% | 1018 hPa | - | - | - | - |
* Rain since midnight (hover to see other rain measurements)
** Current wind speed in m/s (hover to see current wind gust speed)